Time;durP1;ratioP1;P1;durP2;ratioP2;P2;SDS_P1;SDS_P2;PMS_P1;PMS_P2;Temp;Humidity;BMP_temperature;BMP_pressure;BME280_temperature;BME280_humidity;BME280_pressure;Samples;Min_cycle;Max_cycle;Signal;HPM_P1;HPM_P2
2023/12/01 00:01:48;;;;;;;;;;;;;;;16.10;45.47;100439.69;4968787;28;1116;-50
2023/12/01 00:04:14;;;;;;;;;;;;;;;15.79;45.77;100420.75;4972986;28;1077;-57
2023/12/01 00:06:39;;;;;;;;;;;;;;;15.54;46.51;100422.56;4976999;28;1088;-57
2023/12/01 00:09:05;;;;;;;;;;;;;;;16.16;45.75;100425.94;4964372;28;1963;-56
2023/12/01 00:11:30;;;;;;;;;;;;;;;17.31;42.85;100414.47;4961302;28;855;-56
2023/12/01 00:13:56;;;;;;;;;;;;;;;16.60;44.40;100414.66;4959651;28;1067;-57
2023/12/01 00:16:21;;;;;;;;;;;;;;;16.05;45.51;100414.47;4977229;28;1029;-55
2023/12/01 00:18:47;;;;;;;;;;;;;;;15.79;46.04;100405.69;4976081;28;1054;-56
2023/12/01 00:21:12;;;;;;;;;;;;;;;15.59;46.71;100411.63;4977804;28;1141;-51
2023/12/01 00:23:38;;;;;;;;;;;;;;;15.70;46.39;100397.59;4962010;28;899;-54
2023/12/01 00:26:04;;;;;;;;;;;;;;;17.05;43.73;100404.94;4977494;28;1080;-55
2023/12/01 00:28:29;;;;;;;;;;;;;;;16.66;43.87;100421.28;4975748;28;1961;-52
2023/12/01 00:30:55;;;;;;;;;;;;;;;16.05;45.30;100417.94;4957824;28;1116;-55
2023/12/01 00:33:20;;;;;;;;;;;;;;;15.74;46.39;100413.16;4957727;28;1177;-55
2023/12/01 00:35:46;;;;;;;;;;;;;;;16.37;45.08;100425.25;4958162;28;881;-54
2023/12/01 00:38:11;;;;;;;;;;;;;;;17.28;42.78;100426.22;4970333;28;1202;-55
2023/12/01 00:40:37;;;;;;;;;;;;;;;16.47;44.68;100413.91;4956870;28;1358;-57
2023/12/01 00:43:02;;;;;;;;;;;;;;;16.03;45.47;100396.03;4972149;28;1125;-54
2023/12/01 00:45:28;;;;;;;;;;;;;;;15.74;46.14;100402.53;4969485;28;1156;-53
2023/12/01 00:47:53;;;;;;;;;;;;;;;16.19;45.75;100406.28;4972640;28;1115;-54
2023/12/01 00:50:19;;;;;;;;;;;;;;;17.24;42.86;100404.34;4963676;28;1967;-55
2023/12/01 00:52:44;;;;;;;;;;;;;;;16.37;44.60;100397.84;4957908;28;1038;-53
2023/12/01 00:55:10;;;;;;;;;;;;;;;15.99;45.50;100390.09;4977344;28;1001;-53
2023/12/01 00:57:35;;;;;;;;;;;;;;;15.76;46.28;100395.31;4978622;28;993;-51
2023/12/01 01:00:01;;;;;;;;;;;;;;;16.26;45.49;100404.88;4977952;28;991;-52
2023/12/01 01:02:26;;;;;;;;;;;;;;;17.31;42.75;100398.50;4967248;28;1156;-52
2023/12/01 01:04:52;;;;;;;;;;;;;;;16.45;44.74;100398.09;4960156;28;1224;-53
2023/12/01 01:07:17;;;;;;;;;;;;;;;16.01;45.69;100388.19;4968865;28;1086;-54
2023/12/01 01:09:43;;;;;;;;;;;;;;;15.71;46.46;100384.22;4961354;28;1981;-50
2023/12/01 01:12:08;;;;;;;;;;;;;;;15.54;46.58;100382.81;4977674;28;881;-53
2023/12/01 01:14:34;;;;;;;;;;;;;;;16.60;44.62;100381.94;4973280;28;1128;-56
2023/12/01 01:16:59;;;;;;;;;;;;;;;17.41;42.62;100372.00;4973898;28;1006;-55
2023/12/01 01:19:25;;;;;;;;;;;;;;;16.51;44.23;100379.06;4966699;28;1292;-58
2023/12/01 01:21:51;;;;;;;;;;;;;;;16.07;45.73;100375.38;4979637;28;1049;-54
2023/12/01 01:24:16;;;;;;;;;;;;;;;15.77;46.20;100372.28;4977670;28;882;-56
2023/12/01 01:26:42;;;;;;;;;;;;;;;15.83;46.38;100373.63;4979556;28;1104;-58
2023/12/01 01:29:07;;;;;;;;;;;;;;;17.12;43.32;100365.47;4966606;28;1902;-58
2023/12/01 01:31:33;;;;;;;;;;;;;;;16.41;44.55;100367.47;4979713;28;1135;-57
2023/12/01 01:33:59;;;;;;;;;;;;;;;15.96;45.89;100370.88;4973816;28;1113;-57
2023/12/01 01:36:24;;;;;;;;;;;;;;;15.83;46.06;100368.31;4964729;28;863;-56
2023/12/01 01:38:50;;;;;;;;;;;;;;;17.14;43.52;100368.84;4973934;28;1101;-57
2023/12/01 01:41:15;;;;;;;;;;;;;;;16.81;43.54;100375.88;4973185;28;1084;-57
2023/12/01 01:43:41;;;;;;;;;;;;;;;16.21;45.03;100371.66;4973594;28;1085;-58
2023/12/01 01:46:10;;;;;;;;;;;;;;;15.91;45.83;100373.88;4974029;28;1215;-56
2023/12/01 01:48:36;;;;;;;;;;;;;;;15.70;46.55;100366.59;4972630;28;1906;-61
2023/12/01 01:51:02;;;;;;;;;;;;;;;15.72;46.74;100363.81;4977406;28;1006;-58
2023/12/01 01:53:28;;;;;;;;;;;;;;;17.07;43.51;100360.50;4971187;28;1203;-54
2023/12/01 01:55:57;;;;;;;;;;;;;;;16.63;44.28;100366.59;4958500;28;1109;-54
2023/12/01 01:58:23;;;;;;;;;;;;;;;16.07;45.59;100365.63;4977172;28;1931;-56
2023/12/01 02:00:49;;;;;;;;;;;;;;;15.88;45.80;100364.34;4956341;28;1139;-56
2023/12/01 02:03:18;;;;;;;;;;;;;;;15.81;46.44;100367.59;4978445;28;1120;-55
2023/12/01 02:05:47;;;;;;;;;;;;;;;17.13;43.41;100360.00;4965731;28;1177;-57
2023/12/01 02:08:20;;;;;;;;;;;;;;;16.52;44.28;100359.50;4979203;28;1111;-56
2023/12/01 02:10:45;;;;;;;;;;;;;;;16.04;45.41;100349.94;4972072;28;2001;-55
2023/12/01 02:13:14;;;;;;;;;;;;;;;15.75;46.18;100343.22;4978268;28;1284;-57
2023/12/01 02:15:43;;;;;;;;;;;;;;;15.70;46.68;100345.38;4977572;28;1113;-55
2023/12/01 02:18:20;;;;;;;;;;;;;;;17.07;43.69;100351.66;4968196;28;1153;-51
2023/12/01 02:20:46;;;;;;;;;;;;;;;16.52;44.56;100337.41;4964380;28;1389;-54
2023/12/01 02:23:11;;;;;;;;;;;;;;;16.01;45.52;100343.06;4970012;28;1173;-53
2023/12/01 02:25:37;;;;;;;;;;;;;;;15.76;46.45;100344.94;4959961;28;1160;-53
2023/12/01 02:28:02;;;;;;;;;;;;;;;16.22;45.60;100337.06;4971153;28;1062;-53
2023/12/01 02:30:28;;;;;;;;;;;;;;;17.30;42.85;100341.00;4961791;28;1989;-54
2023/12/01 02:32:53;;;;;;;;;;;;;;;16.44;44.85;100345.97;4959940;28;1017;-51
2023/12/01 02:35:19;;;;;;;;;;;;;;;16.05;45.60;100335.69;4976599;28;1141;-54
2023/12/01 02:37:44;;;;;;;;;;;;;;;15.77;46.30;100336.00;4967831;28;1119;-53
2023/12/01 02:40:16;;;;;;;;;;;;;;;15.60;46.49;100331.16;4976548;28;1487;-53
2023/12/01 02:42:51;;;;;;;;;;;;;;;16.84;44.14;100322.50;4978879;28;1064;-55
2023/12/01 02:45:17;;;;;;;;;;;;;;;16.70;44.17;100315.66;4952108;28;1039;-53
2023/12/01 02:47:47;;;;;;;;;;;;;;;16.15;45.44;100327.88;4970768;28;1076;-55
2023/12/01 02:50:13;;;;;;;;;;;;;;;15.91;45.76;100329.63;4954064;28;1961;-54
2023/12/01 02:52:39;;;;;;;;;;;;;;;15.65;46.52;100335.13;4976632;28;1066;-52
2023/12/01 02:55:04;;;;;;;;;;;;;;;15.54;46.97;100333.28;4957862;29;1165;-52
2023/12/01 02:57:30;;;;;;;;;;;;;;;16.81;44.31;100328.91;4971692;28;1060;-57
2023/12/01 02:59:55;;;;;;;;;;;;;;;16.93;43.50;100327.09;4967875;28;860;-56
2023/12/01 03:02:21;;;;;;;;;;;;;;;16.20;45.10;100330.19;4974297;28;1013;-54
2023/12/01 03:04:47;;;;;;;;;;;;;;;15.93;45.92;100323.38;4966181;28;1256;-53
2023/12/01 03:07:12;;;;;;;;;;;;;;;15.69;46.70;100306.56;4975972;28;1137;-57
2023/12/01 03:09:38;;;;;;;;;;;;;;;16.39;45.11;100311.84;4958869;28;1906;-56
2023/12/01 03:12:04;;;;;;;;;;;;;;;17.39;42.86;100305.66;4971326;28;1061;-55
2023/12/01 03:14:29;;;;;;;;;;;;;;;16.51;44.51;100301.19;4993213;28;1218;-56
2023/12/01 03:16:56;;;;;;;;;;;;;;;16.08;45.55;100308.91;4976551;28;1183;-56
2023/12/01 03:19:22;;;;;;;;;;;;;;;15.85;46.07;100303.56;4936026;28;1129;-53
2023/12/01 03:21:47;;;;;;;;;;;;;;;15.63;46.74;100293.78;4977836;28;1069;-49
2023/12/01 03:24:13;;;;;;;;;;;;;;;16.38;45.34;100301.34;4974125;28;893;-53
2023/12/01 03:26:39;;;;;;;;;;;;;;;17.33;42.96;100301.69;4965444;28;1215;-51
2023/12/01 03:29:04;;;;;;;;;;;;;;;16.41;44.71;100303.75;4965140;28;1906;-53
2023/12/01 03:31:30;;;;;;;;;;;;;;;15.97;45.89;100295.63;4973589;28;1016;-51
2023/12/01 03:33:55;;;;;;;;;;;;;;;15.72;46.22;100287.75;4971060;28;1117;-50
2023/12/01 03:36:24;;;;;;;;;;;;;;;15.70;46.54;100294.97;4959864;28;1173;-54
2023/12/01 03:38:49;;;;;;;;;;;;;;;17.06;43.65;100300.34;4958362;28;1290;-54
2023/12/01 03:41:15;;;;;;;;;;;;;;;16.67;44.00;100306.13;4957326;29;1207;-51
2023/12/01 03:43:40;;;;;;;;;;;;;;;16.06;45.75;100294.97;4957134;28;1977;-53
2023/12/01 03:46:06;;;;;;;;;;;;;;;15.79;46.39;100293.44;4957631;28;1958;-49
2023/12/01 03:48:33;;;;;;;;;;;;;;;15.98;46.23;100315.91;4966457;28;1898;-55
2023/12/01 03:50:59;;;;;;;;;;;;;;;17.30;43.13;100279.88;4973989;28;2078;-51
2023/12/01 03:53:25;;;;;;;;;;;;;;;16.38;45.09;100266.84;4954378;28;2244;-53
2023/12/01 03:55:50;;;;;;;;;;;;;;;15.95;46.12;100276.34;4969237;28;2059;-48
2023/12/01 03:58:16;;;;;;;;;;;;;;;15.69;46.38;100269.44;4970755;28;2244;-50
2023/12/01 04:00:42;;;;;;;;;;;;;;;15.51;47.22;100269.06;4965790;28;1065;-48
2023/12/01 04:03:08;;;;;;;;;;;;;;;15.40;47.33;100260.09;4957700;28;1101;-50
2023/12/01 04:05:34;;;;;;;;;;;;;;;16.54;44.93;100274.41;4963247;28;1390;-47
2023/12/01 04:07:59;;;;;;;;;;;;;;;17.02;43.67;100270.53;4965156;28;1195;-50
2023/12/01 04:10:25;;;;;;;;;;;;;;;16.14;45.41;100267.81;4957645;29;1914;-44
2023/12/01 04:12:50;;;;;;;;;;;;;;;15.84;46.39;100269.22;4981566;28;1287;-49
2023/12/01 04:15:19;;;;;;;;;;;;;;;15.63;46.94;100267.28;4957628;28;1014;-50
2023/12/01 04:17:46;;;;;;;;;;;;;;;16.94;43.93;100262.34;4958730;28;1339;-46
2023/12/01 04:20:21;;;;;;;;;;;;;;;16.43;44.82;100267.31;4967438;28;1354;-52
2023/12/01 04:22:56;;;;;;;;;;;;;;;15.91;46.04;100251.88;4957544;28;1350;-45
2023/12/01 04:25:22;;;;;;;;;;;;;;;15.65;46.54;100252.91;4960776;28;1037;-46
2023/12/01 04:27:48;;;;;;;;;;;;;;;15.99;46.22;100265.41;4957579;28;2323;-49
2023/12/01 04:30:17;;;;;;;;;;;;;;;17.02;43.53;100246.59;4959203;28;1969;-51
2023/12/01 04:32:43;;;;;;;;;;;;;;;16.24;45.18;100249.34;4967362;28;994;-49
2023/12/01 04:35:10;;;;;;;;;;;;;;;15.82;46.32;100253.41;4980648;28;1009;-48
2023/12/01 04:37:36;;;;;;;;;;;;;;;15.61;47.08;100240.88;4964327;28;916;-49
2023/12/01 04:40:02;;;;;;;;;;;;;;;15.84;46.57;100246.19;4976428;28;1367;-49
2023/12/01 04:42:27;;;;;;;;;;;;;;;16.93;43.88;100255.34;4970918;28;1060;-54
2023/12/01 04:44:53;;;;;;;;;;;;;;;16.11;45.61;100250.34;4973979;28;1089;-53
2023/12/01 04:47:18;;;;;;;;;;;;;;;15.75;46.75;100244.25;4970588;28;1140;-51
2023/12/01 04:49:44;;;;;;;;;;;;;;;15.55;47.24;100244.84;4979062;28;1902;-55
2023/12/01 04:52:09;;;;;;;;;;;;;;;16.12;46.05;100259.13;4980482;28;1009;-54
2023/12/01 04:54:36;;;;;;;;;;;;;;;17.67;42.77;100259.91;4963560;28;1285;-50
2023/12/01 04:57:01;;;;;;;;;;;;;;;16.44;45.24;100253.06;4960473;28;1951;-53
2023/12/01 04:59:27;;;;;;;;;;;;;;;15.99;45.99;100249.50;4958739;28;915;-53
2023/12/01 05:01:53;;;;;;;;;;;;;;;15.72;46.51;100260.38;4959804;28;945;-53
2023/12/01 05:04:19;;;;;;;;;;;;;;;16.05;46.25;100256.09;4950845;29;1460;-52
2023/12/01 05:06:44;;;;;;;;;;;;;;;17.08;43.88;100257.69;4960315;28;1021;-58
2023/12/01 05:09:16;;;;;;;;;;;;;;;16.32;45.36;100259.34;4959071;28;1903;-53
2023/12/01 05:11:45;;;;;;;;;;;;;;;15.93;46.26;100262.34;4968569;28;1021;-50
2023/12/01 05:14:10;;;;;;;;;;;;;;;16.40;45.39;100259.56;4962840;28;877;-54
2023/12/01 05:16:36;;;;;;;;;;;;;;;16.73;44.34;100267.59;4958127;28;1011;-54
2023/12/01 05:19:01;;;;;;;;;;;;;;;16.03;46.07;100253.56;4960765;28;970;-55
2023/12/01 05:21:27;;;;;;;;;;;;;;;15.76;46.63;100264.50;4960371;28;1112;-56
2023/12/01 05:23:52;;;;;;;;;;;;;;;15.61;47.20;100261.22;4957986;28;1374;-52
2023/12/01 05:26:18;;;;;;;;;;;;;;;15.42;47.68;100265.28;4960160;28;1803;-54
2023/12/01 05:28:43;;;;;;;;;;;;;;;15.47;47.79;100264.94;4960194;28;1895;-55
2023/12/01 05:31:10;;;;;;;;;;;;;;;16.15;45.55;100269.47;4967347;28;1184;-55
2023/12/01 05:33:38;;;;;;;;;;;;;;;14.95;47.94;100276.66;4966178;28;1093;-56
2023/12/01 05:36:08;;;;;;;;;;;;;;;14.64;47.86;100270.94;4960617;28;1113;-55
2023/12/01 05:38:34;;;;;;;;;;;;;;;14.52;47.04;100275.31;4959917;28;1145;-51
2023/12/01 05:41:00;;;;;;;;;;;;;;;14.36;47.00;100262.34;4960171;28;1120;-51
2023/12/01 05:43:25;;;;;;;;;;;;;;;15.22;47.96;100269.44;4971432;28;1050;-54
2023/12/01 05:45:51;;;;;;;;;;;;;;;14.96;47.98;100259.84;4960151;28;935;-56
2023/12/01 05:48:16;;;;;;;;;;;;;;;14.52;47.89;100268.22;4960263;28;1026;-53
2023/12/01 05:50:42;;;;;;;;;;;;;;;14.35;47.40;100261.50;4960091;28;1914;-55
2023/12/01 05:53:08;;;;;;;;;;;;;;;14.37;46.45;100264.03;4959654;28;1156;-54
2023/12/01 05:55:34;;;;;;;;;;;;;;;15.32;47.95;100262.47;4968324;28;943;-53
2023/12/01 05:58:01;;;;;;;;;;;;;;;14.69;48.25;100267.03;4962551;28;1966;-52
2023/12/01 06:00:29;;;;;;;;;;;;;;;14.34;47.88;100262.47;4955825;28;1117;-51
2023/12/01 06:02:56;;;;;;;;;;;;;;;14.32;46.80;100264.38;4959697;28;974;-52
2023/12/01 06:05:21;;;;;;;;;;;;;;;14.29;47.82;100267.22;4957124;28;1177;-48
2023/12/01 06:07:52;;;;;;;;;;;;;;;15.05;47.68;100271.53;4958287;28;1023;-54
2023/12/01 06:10:18;;;;;;;;;;;;;;;14.40;48.05;100279.69;4957541;28;2000;-52
2023/12/01 06:12:43;;;;;;;;;;;;;;;14.31;47.34;100270.63;4959241;28;1136;-52
2023/12/01 06:15:13;;;;;;;;;;;;;;;15.59;47.38;100268.44;4955099;28;1150;-52
2023/12/01 06:17:41;;;;;;;;;;;;;;;14.66;47.99;100266.38;4959888;28;1085;-52
2023/12/01 06:20:19;;;;;;;;;;;;;;;14.37;47.85;100264.03;4965063;28;1204;-53
2023/12/01 06:22:47;;;;;;;;;;;;;;;15.62;47.13;100261.09;4959577;28;977;-53
2023/12/01 06:25:13;;;;;;;;;;;;;;;14.65;48.13;100254.09;4958558;28;1154;-53
2023/12/01 06:27:40;;;;;;;;;;;;;;;16.14;46.90;100259.84;4959256;28;1944;-54
2023/12/01 06:30:11;;;;;;;;;;;;;;;15.63;47.22;100262.78;4958867;28;1919;-53
2023/12/01 06:32:46;;;;;;;;;;;;;;;14.98;47.71;100257.91;4959462;28;1112;-50
2023/12/01 06:35:14;;;;;;;;;;;;;;;14.73;47.28;100262.31;4949019;28;1192;-49
2023/12/01 06:37:40;;;;;;;;;;;;;;;14.56;46.79;100267.03;4958233;28;1050;-52
2023/12/01 06:40:12;;;;;;;;;;;;;;;14.49;46.35;100263.16;4952741;28;1094;-47
2023/12/01 06:42:39;;;;;;;;;;;;;;;14.29;45.85;100254.84;4959116;28;1029;-52
2023/12/01 06:45:06;;;;;;;;;;;;;;;15.27;47.31;100262.84;4958283;28;1076;-50
2023/12/01 06:47:32;;;;;;;;;;;;;;;14.78;47.69;100257.53;4958944;28;1033;-51
2023/12/01 06:49:57;;;;;;;;;;;;;;;14.45;47.20;100265.19;4957778;28;1926;-52
2023/12/01 06:52:23;;;;;;;;;;;;;;;15.62;47.70;100262.91;4958885;28;1056;-50
2023/12/01 06:54:48;;;;;;;;;;;;;;;14.68;48.37;100256.53;4960318;28;1085;-52
2023/12/01 06:57:14;;;;;;;;;;;;;;;15.49;47.95;100260.34;4969569;28;2553;-50
2023/12/01 06:59:39;;;;;;;;;;;;;;;15.70;47.28;100257.03;4957740;28;1141;-40
2023/12/01 07:02:05;;;;;;;;;;;;;;;14.87;48.08;100257.84;4958828;28;866;-40
2023/12/01 07:04:32;;;;;;;;;;;;;;;14.66;47.39;100253.16;4954731;28;1153;-42
2023/12/01 07:07:00;;;;;;;;;;;;;;;14.53;47.00;100243.44;4950651;28;1110;-39
2023/12/01 07:09:30;;;;;;;;;;;;;;;14.99;47.97;100245.50;4956247;28;1914;-41
2023/12/01 07:11:55;;;;;;;;;;;;;;;14.89;47.98;100248.00;4951320;28;1224;-41
2023/12/01 07:14:23;;;;;;;;;;;;;;;14.57;47.90;100247.56;4958019;28;1077;-40
2023/12/01 07:16:49;;;;;;;;;;;;;;;15.37;48.03;100246.22;4958265;28;1098;-39
2023/12/01 07:19:14;;;;;;;;;;;;;;;14.75;47.99;100241.88;4957813;28;1121;-40
2023/12/01 07:21:40;;;;;;;;;;;;;;;14.53;47.73;100239.97;4957684;28;1216;-39
2023/12/01 07:24:08;;;;;;;;;;;;;;;15.09;48.21;100245.66;4957457;28;1256;-39
2023/12/01 07:26:33;;;;;;;;;;;;;;;15.22;47.67;100243.78;4954694;28;2081;-39
2023/12/01 07:29:00;;;;;;;;;;;;;;;14.62;48.14;100251.66;4957899;28;1991;-40
2023/12/01 07:31:26;;;;;;;;;;;;;;;14.52;47.09;100247.06;4950987;28;1199;-40
2023/12/01 07:33:52;;;;;;;;;;;;;;;14.48;47.09;100250.03;4958233;28;1037;-51
2023/12/01 07:36:17;;;;;;;;;;;;;;;15.47;46.96;100254.31;4952621;28;1299;-50
2023/12/01 07:38:43;;;;;;;;;;;;;;;14.73;47.57;100253.56;4954352;28;1349;-50
2023/12/01 07:41:12;;;;;;;;;;;;;;;15.22;48.03;100251.75;4955729;28;1364;-49
2023/12/01 07:43:40;;;;;;;;;;;;;;;14.96;47.66;100257.19;4957934;28;1426;-52
2023/12/01 07:46:06;;;;;;;;;;;;;;;14.68;47.31;100251.25;4951797;28;1141;-49
2023/12/01 07:48:32;;;;;;;;;;;;;;;14.47;46.81;100245.69;4958219;28;1153;-52
2023/12/01 07:50:58;;;;;;;;;;;;;;;14.28;46.50;100250.50;4956869;28;1898;-53
2023/12/01 07:53:24;;;;;;;;;;;;;;;14.36;46.53;100243.81;4956748;28;1211;-51
2023/12/01 07:55:50;;;;;;;;;;;;;;;15.29;47.03;100249.47;4956933;28;1023;-52
2023/12/01 07:58:16;;;;;;;;;;;;;;;14.55;47.61;100238.88;4960354;28;2141;-53
2023/12/01 08:00:42;;;;;;;;;;;;;;;15.73;47.24;100236.41;4958174;28;1331;-52
2023/12/01 08:03:08;;;;;;;;;;;;;;;15.11;47.69;100236.66;4957478;28;1020;-49
2023/12/01 08:05:34;;;;;;;;;;;;;;;14.72;47.64;100225.38;4965496;28;1534;-50
2023/12/01 08:08:00;;;;;;;;;;;;;;;14.56;47.10;100224.69;4957348;28;1033;-52
2023/12/01 08:10:25;;;;;;;;;;;;;;;15.39;47.69;100244.31;4956249;28;1975;-52
2023/12/01 08:12:51;;;;;;;;;;;;;;;14.73;47.63;100227.91;4957038;28;1124;-50
2023/12/01 08:15:16;;;;;;;;;;;;;;;14.50;47.14;100234.88;4951663;28;883;-50
2023/12/01 08:17:42;;;;;;;;;;;;;;;14.42;46.72;100232.78;4951045;28;1125;-53
2023/12/01 08:20:08;;;;;;;;;;;;;;;15.61;46.65;100227.63;4954874;28;1323;-50
2023/12/01 08:22:35;;;;;;;;;;;;;;;14.79;47.82;100229.25;4957379;28;1200;-50
2023/12/01 08:25:01;;;;;;;;;;;;;;;14.46;47.16;100223.69;4956942;28;1101;-51
2023/12/01 08:27:26;;;;;;;;;;;;;;;14.39;46.69;100223.28;4957214;28;1864;-51
2023/12/01 08:29:52;;;;;;;;;;;;;;;15.61;47.28;100232.06;4955130;28;1965;-51
2023/12/01 08:32:18;;;;;;;;;;;;;;;14.87;47.41;100220.78;4951186;28;1030;-51
2023/12/01 08:34:44;;;;;;;;;;;;;;;14.56;47.29;100208.81;4956674;28;1006;-50
2023/12/01 08:37:10;;;;;;;;;;;;;;;14.42;46.57;100220.41;4956651;28;1065;-50
2023/12/01 08:39:35;;;;;;;;;;;;;;;15.63;47.16;100216.91;4963108;28;1041;-51
2023/12/01 08:42:01;;;;;;;;;;;;;;;14.77;47.49;100212.63;4957000;28;1429;-50
2023/12/01 08:44:27;;;;;;;;;;;;;;;14.52;47.15;100217.09;4957372;28;1026;-55
2023/12/01 08:46:52;;;;;;;;;;;;;;;14.36;47.55;100204.13;4946134;28;1133;-52
2023/12/01 08:49:19;;;;;;;;;;;;;;;15.42;46.77;100212.28;4957166;28;1970;-54
2023/12/01 08:51:44;;;;;;;;;;;;;;;14.66;47.76;100214.28;4949932;28;1150;-52
2023/12/01 08:54:10;;;;;;;;;;;;;;;16.18;46.58;100218.84;4957221;28;1112;-53
2023/12/01 08:56:35;;;;;;;;;;;;;;;15.42;47.23;100217.56;4948731;28;2074;-55
2023/12/01 08:59:01;;;;;;;;;;;;;;;14.89;47.40;100213.56;4957088;28;1129;-53
2023/12/01 09:01:27;;;;;;;;;;;;;;;14.64;46.84;100212.69;4950562;28;1189;-52
2023/12/01 09:03:52;;;;;;;;;;;;;;;15.23;48.16;100221.63;4962187;28;866;-50
2023/12/01 09:06:17;;;;;;;;;;;;;;;15.30;47.98;100208.75;4958488;28;1092;-55
2023/12/01 09:08:43;;;;;;;;;;;;;;;14.84;47.37;100202.47;4957466;28;1057;-52
2023/12/01 09:11:09;;;;;;;;;;;;;;;14.56;46.99;100200.03;4960742;28;1914;-48
2023/12/01 09:13:36;;;;;;;;;;;;;;;14.40;46.94;100195.00;4957043;28;1030;-50
2023/12/01 09:16:02;;;;;;;;;;;;;;;15.59;46.89;100188.91;4954604;28;1010;-47
2023/12/01 09:18:27;;;;;;;;;;;;;;;14.72;47.92;100196.25;4960121;28;1092;-49
2023/12/01 09:20:53;;;;;;;;;;;;;;;14.57;47.05;100193.78;4958249;28;1025;-50
2023/12/01 09:23:19;;;;;;;;;;;;;;;14.42;46.78;100187.81;4960457;28;1124;-48
2023/12/01 09:25:45;;;;;;;;;;;;;;;15.48;47.33;100195.88;4959327;28;1207;-50
2023/12/01 09:28:10;;;;;;;;;;;;;;;14.93;47.51;100191.22;4965619;28;1884;-50
2023/12/01 09:30:36;;;;;;;;;;;;;;;14.51;47.33;100188.94;4962564;28;1902;-50
2023/12/01 09:33:02;;;;;;;;;;;;;;;15.53;47.33;100198.22;4959367;28;1031;-52
2023/12/01 09:35:28;;;;;;;;;;;;;;;14.78;48.05;100188.69;4966187;28;1021;-48
2023/12/01 09:37:53;;;;;;;;;;;;;;;14.58;46.88;100182.22;4958822;28;1119;-50
2023/12/01 09:40:19;;;;;;;;;;;;;;;14.40;46.73;100181.78;4958121;28;1024;-52
2023/12/01 09:42:44;;;;;;;;;;;;;;;15.34;47.16;100190.81;4952472;28;1161;-51
2023/12/01 09:45:10;;;;;;;;;;;;;;;14.85;47.83;100178.53;4958383;28;1078;-53
2023/12/01 09:47:36;;;;;;;;;;;;;;;14.58;47.34;100187.50;4951238;29;1055;-53
2023/12/01 09:50:02;;;;;;;;;;;;;;;15.68;46.56;100182.91;4959365;28;1918;-52
2023/12/01 09:52:28;;;;;;;;;;;;;;;14.83;47.88;100174.31;4959915;28;1133;-50
2023/12/01 09:54:53;;;;;;;;;;;;;;;14.72;46.96;100169.78;4958490;28;1129;-51
2023/12/01 09:57:19;;;;;;;;;;;;;;;14.52;46.43;100170.31;4959622;28;1848;-49
2023/12/01 09:59:45;;;;;;;;;;;;;;;15.09;47.56;100174.13;4959198;28;1022;-51
2023/12/01 10:02:10;;;;;;;;;;;;;;;14.64;47.62;100179.16;4954654;28;1224;-51
2023/12/01 10:04:36;;;;;;;;;;;;;;;14.36;47.14;100165.28;4959408;29;1033;-51
2023/12/01 10:07:03;;;;;;;;;;;;;;;15.60;46.82;100161.47;4957172;28;1150;-52
2023/12/01 10:09:36;;;;;;;;;;;;;;;14.77;47.48;100160.53;4961269;28;1902;-50
2023/12/01 10:12:06;;;;;;;;;;;;;;;14.45;47.30;100155.81;4968947;28;1050;-53
2023/12/01 10:14:32;;;;;;;;;;;;;;;14.42;46.72;100154.25;4962205;28;1037;-55
2023/12/01 10:17:01;;;;;;;;;;;;;;;14.26;46.21;100156.34;4960778;28;1180;-54
2023/12/01 10:19:26;;;;;;;;;;;;;;;15.73;46.85;100140.13;4968199;28;966;-48
2023/12/01 10:21:52;;;;;;;;;;;;;;;14.69;47.68;100139.09;4957038;28;1016;-50
2023/12/01 10:24:20;;;;;;;;;;;;;;;14.47;47.31;100145.13;4968278;28;1026;-52
2023/12/01 10:26:46;;;;;;;;;;;;;;;14.35;46.64;100138.94;4964317;28;2382;-52
2023/12/01 10:29:30;;;;;;;;;;;;;;;14.91;47.66;100134.84;4962547;28;1914;-51
2023/12/01 10:32:02;;;;;;;;;;;;;;;14.92;47.86;100125.94;4953022;28;1039;-55
2023/12/01 10:34:28;;;;;;;;;;;;;;;14.53;47.41;100119.03;4951987;28;1315;-51
2023/12/01 10:36:53;;;;;;;;;;;;;;;14.59;47.21;100127.50;4959444;28;1014;-51
2023/12/01 10:39:24;;;;;;;;;;;;;;;15.29;47.43;100124.91;4958318;28;1271;-53
2023/12/01 10:41:53;;;;;;;;;;;;;;;14.68;47.80;100125.00;4950945;28;1108;-52
2023/12/01 10:44:19;;;;;;;;;;;;;;;14.51;46.88;100120.97;4951522;28;1015;-54
2023/12/01 10:46:46;;;;;;;;;;;;;;;14.38;46.67;100117.56;4972132;28;1153;-54
2023/12/01 10:49:13;;;;;;;;;;;;;;;14.86;47.23;100131.72;4970247;28;1890;-53
2023/12/01 10:51:38;;;;;;;;;;;;;;;15.25;47.11;100129.59;4954665;28;1087;-56
2023/12/01 10:54:04;;;;;;;;;;;;;;;14.63;47.29;100134.25;4950105;29;1028;-50
2023/12/01 10:56:30;;;;;;;;;;;;;;;14.37;47.19;100137.88;4957678;28;1876;-54
2023/12/01 10:58:55;;;;;;;;;;;;;;;15.32;47.39;100143.22;4957745;28;1003;-53
2023/12/01 11:01:22;;;;;;;;;;;;;;;14.63;47.92;100131.59;4966573;28;1047;-57
2023/12/01 11:03:48;;;;;;;;;;;;;;;14.50;47.28;100135.16;4958951;28;979;-53
2023/12/01 11:06:17;;;;;;;;;;;;;;;14.45;46.42;100137.28;4957553;28;1121;-53
2023/12/01 11:08:51;;;;;;;;;;;;;;;15.34;47.26;100133.38;4958176;28;1093;-55
2023/12/01 11:11:19;;;;;;;;;;;;;;;14.82;47.53;100120.50;4964843;28;1014;-50
2023/12/01 11:13:44;;;;;;;;;;;;;;;14.55;47.00;100118.94;4964532;28;1058;-54
2023/12/01 11:16:10;;;;;;;;;;;;;;;15.55;46.59;100108.78;4965249;28;879;-53
2023/12/01 11:18:36;;;;;;;;;;;;;;;14.72;47.32;100093.84;4957081;28;1280;-53
2023/12/01 11:21:05;;;;;;;;;;;;;;;14.62;47.38;100099.00;4965225;28;1188;-54
2023/12/01 11:23:33;;;;;;;;;;;;;;;14.66;47.62;100096.97;4964344;28;977;-56
2023/12/01 11:26:08;;;;;;;;;;;;;;;15.62;46.99;100109.13;4963180;28;1137;-51
2023/12/01 11:31:09;;;;;;;;;;;;;;;14.71;47.87;100105.41;4958221;28;1914;-53
2023/12/01 11:33:38;;;;;;;;;;;;;;;15.29;47.41;100103.72;4957286;28;1066;-55
2023/12/01 11:36:19;;;;;;;;;;;;;;;14.84;47.78;100107.13;4955967;29;1188;-52
2023/12/01 11:39:08;;;;;;;;;;;;;;;14.56;47.11;100110.03;4956631;28;1306;-52
2023/12/01 11:41:34;;;;;;;;;;;;;;;14.47;46.32;100106.28;4960335;28;1244;-51
2023/12/01 11:44:07;;;;;;;;;;;;;;;14.82;47.29;100117.84;4957645;28;1153;-53
2023/12/01 11:46:33;;;;;;;;;;;;;;;15.34;47.38;100112.16;4955107;29;1495;-53
2023/12/01 11:48:58;;;;;;;;;;;;;;;14.79;47.63;100112.75;4957280;28;1980;-53
2023/12/01 11:51:24;;;;;;;;;;;;;;;14.57;46.96;100117.88;4953917;28;1057;-53
2023/12/01 11:54:00;;;;;;;;;;;;;;;14.44;46.63;100109.16;4953130;29;1299;-53
2023/12/01 11:56:26;;;;;;;;;;;;;;;15.32;47.20;100108.78;4945282;28;2059;-51
2023/12/01 11:58:52;;;;;;;;;;;;;;;14.76;47.85;100111.19;4953068;29;1366;-51
2023/12/01 12:01:18;;;;;;;;;;;;;;;14.85;48.17;100107.03;4944453;28;1066;-49
2023/12/01 12:03:45;;;;;;;;;;;;;;;15.12;47.69;100105.88;4950932;28;1314;-52
2023/12/01 12:06:11;;;;;;;;;;;;;;;15.11;48.52;100096.25;4955832;29;1211;-52
2023/12/01 12:08:37;;;;;;;;;;;;;;;16.66;45.61;100102.59;4957566;28;1280;-51
2023/12/01 12:11:06;;;;;;;;;;;;;;;15.39;47.92;100095.91;4956792;29;1914;-51
2023/12/01 12:13:31;;;;;;;;;;;;;;;14.92;47.74;100097.66;4950594;28;1362;-53
2023/12/01 12:15:57;;;;;;;;;;;;;;;14.90;47.05;100099.56;4956833;28;1184;-56
2023/12/01 12:18:27;;;;;;;;;;;;;;;14.67;46.56;100096.84;4957568;28;1076;-54
2023/12/01 12:20:52;;;;;;;;;;;;;;;14.53;46.45;100097.03;4957028;28;1272;-51
2023/12/01 12:23:18;;;;;;;;;;;;;;;14.53;45.93;100084.63;4948161;28;1071;-51
2023/12/01 12:25:46;;;;;;;;;;;;;;;14.40;45.96;100081.22;4952151;29;1323;-52
2023/12/01 12:28:12;;;;;;;;;;;;;;;14.35;45.23;100060.41;4954793;28;2233;-53
2023/12/01 12:30:37;;;;;;;;;;;;;;;15.57;46.49;100075.03;4951095;29;1990;-54
2023/12/01 12:33:03;;;;;;;;;;;;;;;14.69;47.84;100072.91;4953323;28;1200;-53
2023/12/01 12:35:28;;;;;;;;;;;;;;;14.56;46.85;100079.09;4956709;29;1150;-50
2023/12/01 12:37:54;;;;;;;;;;;;;;;15.13;47.59;100080.22;4954353;28;1133;-54
2023/12/01 12:40:19;;;;;;;;;;;;;;;14.82;47.75;100072.84;4957165;28;1311;-50
2023/12/01 12:42:54;;;;;;;;;;;;;;;14.63;47.16;100073.38;4958041;28;1303;-53
2023/12/01 12:45:20;;;;;;;;;;;;;;;14.43;46.38;100071.25;4957589;28;1315;-49
2023/12/01 12:47:45;;;;;;;;;;;;;;;15.89;46.95;100061.00;4966220;28;1148;-54